Terminal Aerodrome Forecast
Issued by NWS Louisville, KY

Home | Current Version | Previous Version | Text Only | Print | Product List | Glossary On
Versions: 1 2 3 4 5 6 7 8 9 10 11 12 13 14 15 16 17
000
FTUS43 KLMK 211700
TAFSDF
TAF
KSDF 211723Z 2118/2224 21009KT P6SM SCT050 BKN150
     FM220200 20005KT P6SM VCSH BKN050
     FM221000 27007KT 5SM BR VCSH BKN010
     FM221300 31010KT P6SM BKN015
     FM221800 33013G20KT P6SM SCT015=

USA.gov is the U.S. government's official web portal to all federal, state and local government web resources and services.